Time;durP1;ratioP1;P1;durP2;ratioP2;P2;SDS_P1;SDS_P2;PMS_P1;PMS_P2;Temp;Humidity;BMP_temperature;BMP_pressure;BME280_temperature;BME280_humidity;BME280_pressure;Samples;Min_cycle;Max_cycle;Signal;HPM_P1;HPM_P2
2021/11/25 00:02:13;;;;;;;4.20;3.80;;;6.30;99.90;;;;;;5071313;28;20200;-79
2021/11/25 00:04:39;;;;;;;3.50;3.10;;;6.20;99.90;;;;;;5053223;28;20575;-81
2021/11/25 00:07:05;;;;;;;5.80;4.07;;;6.30;99.90;;;;;;5070769;28;20175;-80
2021/11/25 00:09:30;;;;;;;7.20;3.67;;;6.30;99.90;;;;;;5070328;28;20173;-78
2021/11/25 00:11:56;;;;;;;4.43;2.93;;;6.30;99.90;;;;;;5071073;28;20204;-78
2021/11/25 00:14:22;;;;;;;4.07;3.60;;;6.30;99.90;;;;;;5069755;28;20176;-81
2021/11/25 00:16:48;;;;;;;6.20;4.07;;;6.30;99.90;;;;;;5070536;28;20168;-78
2021/11/25 00:19:14;;;;;;;3.97;3.20;;;6.40;99.90;;;;;;5071393;28;20172;-79
2021/11/25 00:21:39;;;;;;;3.57;3.27;;;6.40;99.90;;;;;;5071085;28;20204;-79
2021/11/25 00:24:05;;;;;;;4.90;4.23;;;6.40;99.90;;;;;;5070991;28;20173;-79
2021/11/25 00:26:33;;;;;;;4.45;3.70;;;6.40;99.90;;;;;;5070499;28;20629;-79
2021/11/25 00:29:00;;;;;;;3.90;3.53;;;6.40;99.90;;;;;;5071289;28;20165;-81
2021/11/25 00:31:27;;;;;;;4.22;3.22;;;6.40;99.90;;;;;;5075275;28;20494;-78
2021/11/25 00:33:53;;;;;;;5.10;3.53;;;6.40;99.90;;;;;;5071278;28;20189;-78
2021/11/25 00:36:18;;;;;;;5.50;3.70;;;6.40;99.90;;;;;;5070548;28;20199;-78
2021/11/25 00:38:44;;;;;;;4.37;3.93;;;6.50;99.90;;;;;;5070756;28;20255;-78
2021/11/25 00:41:10;;;;;;;3.87;3.47;;;6.50;99.90;;;;;;5069557;28;20193;-80
2021/11/25 00:43:36;;;;;;;5.13;4.20;;;6.50;99.90;;;;;;5069861;28;20267;-80
2021/11/25 00:46:02;;;;;;;5.17;4.23;;;6.40;99.90;;;;;;5069321;28;20945;-80
2021/11/25 00:48:27;;;;;;;3.87;3.27;;;6.40;99.90;;;;;;5069293;28;20188;-80
2021/11/25 00:50:53;;;;;;;5.57;3.80;;;6.50;99.90;;;;;;5065589;28;21188;-80
2021/11/25 00:53:19;;;;;;;5.40;3.80;;;6.50;99.90;;;;;;5060624;28;20164;-80
2021/11/25 00:55:45;;;;;;;4.23;3.63;;;6.60;99.90;;;;;;5065338;28;20591;-80
2021/11/25 00:58:11;;;;;;;4.10;3.50;;;6.60;99.90;;;;;;5073863;28;20176;-80
2021/11/25 01:00:37;;;;;;;4.73;3.67;;;6.70;99.90;;;;;;5074575;28;20188;-80
2021/11/25 01:03:03;;;;;;;4.65;3.83;;;6.70;99.90;;;;;;5072839;28;20689;-80
2021/11/25 01:05:28;;;;;;;4.27;3.87;;;6.70;99.90;;;;;;5074582;28;20175;-80
2021/11/25 01:07:54;;;;;;;5.03;4.40;;;6.80;99.90;;;;;;5074214;28;20736;-81
2021/11/25 01:10:23;;;;;;;4.07;3.67;;;6.80;99.90;;;;;;5077993;28;21037;-78
2021/11/25 01:12:50;;;;;;;4.55;3.55;;;6.80;99.90;;;;;;5074037;28;20183;-78
2021/11/25 01:15:17;;;;;;;3.35;3.05;;;6.90;99.90;;;;;;5056269;28;20169;-78
2021/11/25 01:17:44;;;;;;;4.18;3.75;;;6.90;99.90;;;;;;5072464;28;20196;-78
2021/11/25 01:20:15;;;;;;;4.18;3.78;;;6.90;99.90;;;;;;5078374;28;20795;-77
2021/11/25 01:22:41;;;;;;;3.75;3.30;;;6.90;99.90;;;;;;5074700;28;20248;-78
2021/11/25 01:25:07;;;;;;;5.22;3.50;;;7.00;99.90;;;;;;5074092;28;20175;-78
2021/11/25 01:27:33;;;;;;;3.50;3.20;;;7.00;99.90;;;;;;5115882;27;20186;-77
2021/11/25 01:29:59;;;;;;;4.13;3.72;;;7.00;99.90;;;;;;5075559;28;20180;-78
2021/11/25 01:32:25;;;;;;;5.40;3.40;;;7.00;99.90;;;;;;5039123;28;20182;-78
2021/11/25 01:34:51;;;;;;;4.30;3.20;;;7.10;99.90;;;;;;4937708;28;20637;-78
2021/11/25 01:37:17;;;;;;;4.50;3.33;;;7.10;99.90;;;;;;4817547;29;20604;-78
2021/11/25 01:39:42;;;;;;;5.03;4.00;;;7.10;99.90;;;;;;4826674;29;20285;-78
2021/11/25 01:42:09;;;;;;;4.00;3.00;;;7.10;99.90;;;;;;4594079;30;20641;-78
2021/11/25 01:45:33;;;;;;;4.85;3.45;;;7.10;99.90;;;;;;5149573;27;20714;-76
2021/11/25 01:48:00;;;;;;;4.60;4.20;;;7.10;99.90;;;;;;5126888;27;20185;-78
2021/11/25 01:50:28;;;;;;;3.40;3.10;;;7.10;99.90;;;;;;5106083;28;20654;-78
2021/11/25 01:52:54;;;;;;;3.97;3.58;;;7.00;99.90;;;;;;5084457;28;20724;-78
2021/11/25 01:55:22;;;;;;;3.85;3.50;;;7.00;99.90;;;;;;4984182;28;20185;-78
2021/11/25 01:57:49;;;;;;;3.55;3.15;;;7.00;99.90;;;;;;4903334;29;20190;-78
2021/11/25 02:00:23;;;;;;;3.83;3.40;;;7.00;99.90;;;;;;4918199;28;20244;-78
2021/11/25 02:02:51;;;;;;;3.80;3.20;;;7.00;99.90;;;;;;4736743;29;20291;-76
2021/11/25 02:05:17;;;;;;;3.85;3.47;;;7.00;99.90;;;;;;4659289;29;20230;-77
2021/11/25 02:08:01;;;;;;;3.90;3.60;;;7.00;99.90;;;;;;5150401;27;20723;-77
2021/11/25 02:10:27;;;;;;;4.65;3.85;;;6.90;99.90;;;;;;5124978;28;20190;-78
2021/11/25 02:12:53;;;;;;;5.55;3.58;;;6.80;99.90;;;;;;5038190;28;1269627;-77
2021/11/25 02:15:19;;;;;;;3.55;3.17;;;6.80;99.90;;;;;;5038386;28;20198;-78
2021/11/25 02:17:46;;;;;;;3.70;3.40;;;6.80;99.90;;;;;;5067494;28;20164;-78
2021/11/25 02:20:18;;;;;;;5.35;3.50;;;6.70;99.90;;;;;;5068833;28;20585;-76
2021/11/25 02:22:44;;;;;;;4.07;3.60;;;6.70;99.90;;;;;;5007289;23;20273;-77
2021/11/25 02:25:12;;;;;;;4.32;3.83;;;6.60;99.90;;;;;;4989312;28;20195;-75
2021/11/25 02:27:38;;;;;;;3.70;3.40;;;6.60;99.90;;;;;;4988865;28;20785;-75
2021/11/25 02:30:07;;;;;;;3.87;3.50;;;6.60;99.90;;;;;;4972120;28;20242;-76
2021/11/25 02:32:34;;;;;;;3.88;2.95;;;6.60;99.90;;;;;;4983182;28;20610;-78
2021/11/25 02:35:02;;;;;;;4.20;3.85;;;6.50;99.90;;;;;;4988156;28;20171;-78
2021/11/25 02:37:28;;;;;;;3.25;2.95;;;6.50;99.90;;;;;;4989156;28;20216;-77
2021/11/25 02:39:54;;;;;;;4.43;3.97;;;6.50;99.90;;;;;;4988130;28;20175;-76
2021/11/25 02:42:20;;;;;;;3.87;3.53;;;6.50;99.90;;;;;;4989228;28;20602;-76
2021/11/25 02:44:46;;;;;;;4.43;4.03;;;6.50;99.90;;;;;;4988846;28;20574;-75
2021/11/25 02:47:11;;;;;;;5.47;4.37;;;6.50;99.90;;;;;;4992412;28;20295;-76
2021/11/25 02:49:41;;;;;;;6.00;4.60;;;6.50;99.90;;;;;;4989346;28;20167;-76
2021/11/25 02:52:08;;;;;;;4.82;4.32;;;6.40;99.90;;;;;;4987803;28;20565;-76
2021/11/25 02:54:34;;;;;;;4.07;3.67;;;6.40;99.90;;;;;;4988316;28;20159;-76
2021/11/25 02:56:59;;;;;;;4.27;3.87;;;6.40;99.90;;;;;;4988698;28;20174;-76
2021/11/25 02:59:25;;;;;;;5.10;4.60;;;6.40;99.90;;;;;;5004178;28;20929;-76
2021/11/25 03:01:51;;;;;;;4.77;3.87;;;6.40;99.90;;;;;;4988961;28;20188;-76
2021/11/25 03:04:17;;;;;;;4.53;3.57;;;6.40;99.90;;;;;;4988775;28;20574;-76
2021/11/25 03:06:43;;;;;;;5.28;4.78;;;6.40;99.90;;;;;;4990011;28;20290;-76
2021/11/25 03:09:09;;;;;;;5.10;4.40;;;6.50;99.90;;;;;;4976823;28;20203;-75
2021/11/25 03:11:35;;;;;;;5.03;4.50;;;6.50;99.90;;;;;;4992649;28;20187;-77
2021/11/25 03:14:06;;;;;;;4.72;4.25;;;6.60;99.90;;;;;;4975156;28;20275;-76
2021/11/25 03:16:33;;;;;;;5.22;4.60;;;6.70;99.90;;;;;;4984003;28;20195;-76
2021/11/25 03:18:59;;;;;;;4.82;4.05;;;6.70;99.90;;;;;;4961312;28;20262;-76
2021/11/25 03:21:26;;;;;;;4.60;3.70;;;6.80;99.90;;;;;;4976421;28;20390;-77
2021/11/25 03:23:54;;;;;;;5.07;4.25;;;6.80;99.90;;;;;;4983507;28;20235;-76
2021/11/25 03:26:22;;;;;;;5.47;4.22;;;6.90;99.90;;;;;;4978441;28;20196;-76
2021/11/25 03:28:48;;;;;;;4.57;4.18;;;6.90;99.90;;;;;;4985399;28;20182;-75
2021/11/25 03:31:21;;;;;;;4.60;4.20;;;6.90;99.90;;;;;;4996720;28;20224;-76
2021/11/25 03:33:47;;;;;;;5.80;4.15;;;7.00;99.90;;;;;;4997515;28;20176;-77
2021/11/25 03:36:13;;;;;;;4.80;4.40;;;6.90;99.90;;;;;;4997244;28;20203;-76
2021/11/25 03:38:40;;;;;;;4.93;4.50;;;7.00;99.90;;;;;;4996748;28;20578;-76
2021/11/25 03:41:08;;;;;;;4.55;4.10;;;6.90;99.90;;;;;;4995481;28;20200;-76
2021/11/25 03:43:34;;;;;;;4.82;4.13;;;7.00;99.90;;;;;;4988564;28;20226;-76
2021/11/25 03:46:00;;;;;;;4.35;3.95;;;7.00;99.90;;;;;;4975783;28;20188;-76
2021/11/25 03:48:30;;;;;;;6.13;5.15;;;7.00;99.90;;;;;;4975157;28;20246;-76
2021/11/25 03:51:01;;;;;;;7.47;4.55;;;7.00;99.90;;;;;;4975748;28;20632;-76
2021/11/25 03:53:28;;;;;;;5.07;4.43;;;6.90;99.90;;;;;;4975326;28;20218;-76
2021/11/25 03:55:54;;;;;;;5.35;4.85;;;6.90;99.90;;;;;;4975621;28;20525;-76
2021/11/25 03:58:20;;;;;;;6.47;5.87;;;6.90;99.90;;;;;;4973977;28;20164;-76
2021/11/25 04:00:48;;;;;;;6.68;5.50;;;6.90;99.90;;;;;;4974256;28;20172;-76
2021/11/25 04:03:14;;;;;;;5.80;5.20;;;6.90;99.90;;;;;;4978387;28;20183;-76
2021/11/25 04:05:41;;;;;;;4.78;4.28;;;6.90;99.90;;;;;;4973433;28;20270;-76
2021/11/25 04:08:07;;;;;;;6.07;5.47;;;6.90;99.90;;;;;;4973160;28;20172;-77
2021/11/25 04:10:33;;;;;;;5.17;4.70;;;6.90;99.90;;;;;;4974907;28;20163;-76
2021/11/25 04:12:59;;;;;;;5.23;4.70;;;6.90;99.90;;;;;;4974269;28;20315;-76
2021/11/25 04:15:24;;;;;;;5.60;5.03;;;6.90;99.90;;;;;;4955617;28;20325;-76
2021/11/25 04:17:51;;;;;;;5.63;4.45;;;6.90;99.90;;;;;;4954823;28;20666;-77
2021/11/25 04:20:17;;;;;;;6.20;5.60;;;6.80;99.90;;;;;;4954112;29;20204;-77
2021/11/25 04:22:43;;;;;;;6.20;4.87;;;6.80;99.90;;;;;;4953666;29;20611;-76
2021/11/25 04:25:10;;;;;;;6.67;5.97;;;6.80;99.90;;;;;;4955238;29;21147;-77
2021/11/25 04:27:36;;;;;;;6.43;4.65;;;6.80;99.90;;;;;;4952898;29;20641;-77
2021/11/25 04:35:32;;;;;;;5.65;5.15;;;6.80;99.90;;;;;;4954511;29;20550;-77
2021/11/25 04:38:07;;;;;;;5.72;5.22;;;6.80;99.90;;;;;;4939796;29;20671;-76
2021/11/25 04:40:40;;;;;;;5.18;4.75;;;6.90;99.90;;;;;;4957584;29;20183;-77
2021/11/25 04:43:07;;;;;;;5.57;5.07;;;6.90;99.90;;;;;;4954311;28;20196;-77
2021/11/25 04:45:34;;;;;;;5.88;5.22;;;7.00;99.90;;;;;;4953450;29;20816;-77
2021/11/25 04:48:00;;;;;;;7.15;6.00;;;7.00;99.90;;;;;;4952974;29;20200;-77
2021/11/25 04:50:26;;;;;;;5.90;5.30;;;7.10;99.90;;;;;;4954223;28;20169;-77
2021/11/25 04:52:52;;;;;;;6.17;5.30;;;7.10;99.90;;;;;;4953121;29;20195;-76
2021/11/25 04:55:18;;;;;;;6.90;5.70;;;7.10;99.90;;;;;;4953138;29;20587;-76
2021/11/25 04:57:45;;;;;;;6.05;5.45;;;7.20;99.90;;;;;;4954089;28;20180;-76
2021/11/25 05:00:12;;;;;;;8.00;5.25;;;7.20;99.90;;;;;;4954301;28;20649;-77
2021/11/25 05:02:38;;;;;;;6.97;5.80;;;7.20;99.90;;;;;;4954027;28;20200;-77
2021/11/25 05:05:05;;;;;;;6.10;5.00;;;7.20;99.90;;;;;;4954138;28;20183;-76
2021/11/25 05:07:31;;;;;;;6.35;5.70;;;7.20;99.90;;;;;;4953814;28;20615;-76
2021/11/25 05:09:57;;;;;;;8.40;6.30;;;7.20;99.90;;;;;;4954176;28;20168;-76
2021/11/25 05:12:23;;;;;;;6.13;5.43;;;7.10;99.90;;;;;;4954279;29;20595;-76
2021/11/25 05:14:48;;;;;;;6.03;5.10;;;7.10;99.90;;;;;;4948687;28;20599;-77
2021/11/25 05:17:14;;;;;;;8.27;7.47;;;7.10;99.90;;;;;;4938477;29;20588;-76
2021/11/25 05:19:40;;;;;;;6.90;6.20;;;7.10;99.90;;;;;;4935374;29;20573;-76
2021/11/25 05:22:06;;;;;;;6.45;5.88;;;7.10;99.90;;;;;;4935302;29;20601;-76
2021/11/25 05:24:32;;;;;;;7.20;6.50;;;7.10;99.90;;;;;;4935215;29;20187;-76
2021/11/25 05:26:58;;;;;;;8.47;5.97;;;7.10;99.90;;;;;;4935840;29;20287;-76
2021/11/25 05:29:24;;;;;;;6.90;5.90;;;7.10;99.90;;;;;;4936744;29;20160;-76
2021/11/25 05:31:50;;;;;;;7.38;6.68;;;7.10;99.90;;;;;;4935727;29;20203;-76
2021/11/25 05:34:17;;;;;;;6.30;5.32;;;7.10;99.90;;;;;;4935195;29;20165;-76
2021/11/25 05:36:44;;;;;;;6.95;5.72;;;7.10;99.90;;;;;;4933678;29;20177;-76
2021/11/25 05:39:10;;;;;;;9.52;6.05;;;7.10;99.90;;;;;;4935149;29;20176;-77
2021/11/25 05:41:37;;;;;;;5.35;4.70;;;7.10;99.90;;;;;;4933585;29;20227;-76
2021/11/25 05:44:04;;;;;;;7.13;5.40;;;7.10;99.90;;;;;;4934846;29;20185;-76
2021/11/25 05:46:30;;;;;;;7.05;5.57;;;7.10;99.90;;;;;;4933182;29;20211;-77
2021/11/25 05:48:56;;;;;;;6.95;5.30;;;7.10;99.90;;;;;;4933721;29;20725;-76
2021/11/25 05:51:22;;;;;;;5.00;4.50;;;7.10;99.90;;;;;;4934180;29;20211;-76
2021/11/25 05:53:48;;;;;;;6.20;5.50;;;7.10;99.90;;;;;;4935027;29;20260;-76
2021/11/25 05:56:14;;;;;;;7.53;5.20;;;7.10;99.90;;;;;;4934334;29;20205;-76
2021/11/25 05:58:40;;;;;;;5.60;5.10;;;7.10;99.90;;;;;;4934220;29;20587;-75
2021/11/25 06:01:06;;;;;;;7.18;5.22;;;7.10;99.90;;;;;;4934296;29;20223;-75
2021/11/25 06:03:32;;;;;;;6.07;5.20;;;7.10;99.90;;;;;;4933895;29;20213;-76
2021/11/25 06:05:58;;;;;;;6.23;5.63;;;7.10;99.90;;;;;;4933157;29;20663;-76
2021/11/25 06:08:24;;;;;;;7.20;5.82;;;7.10;99.90;;;;;;4933823;29;20643;-75
2021/11/25 06:10:50;;;;;;;7.30;5.50;;;7.10;99.90;;;;;;4934368;29;20180;-76
2021/11/25 06:13:15;;;;;;;7.80;6.30;;;7.10;99.90;;;;;;4933932;29;20177;-75
2021/11/25 06:15:41;;;;;;;6.77;6.17;;;7.10;99.90;;;;;;4945286;28;20262;-76
2021/11/25 06:18:07;;;;;;;8.07;7.17;;;7.10;99.90;;;;;;4952487;28;20535;-76
2021/11/25 06:20:34;;;;;;;8.10;7.10;;;7.10;99.90;;;;;;4953549;28;20580;-76
2021/11/25 06:23:00;;;;;;;8.02;6.45;;;7.10;99.90;;;;;;4953004;28;20735;-76
2021/11/25 06:25:26;;;;;;;10.43;7.50;;;7.10;99.90;;;;;;4953334;28;20255;-75
2021/11/25 06:27:52;;;;;;;9.57;6.80;;;7.10;99.90;;;;;;4935656;29;20207;-75
2021/11/25 06:30:18;;;;;;;7.68;6.97;;;7.10;99.90;;;;;;4936326;28;20210;-75
2021/11/25 06:32:47;;;;;;;6.77;6.13;;;7.10;99.90;;;;;;4952778;28;20192;-76
2021/11/25 06:35:15;;;;;;;5.45;4.95;;;7.10;99.90;;;;;;4953897;28;21090;-75
2021/11/25 06:37:45;;;;;;;7.35;5.72;;;7.20;99.90;;;;;;4953288;29;20191;-76
2021/11/25 06:40:13;;;;;;;7.60;6.45;;;7.20;99.90;;;;;;4953711;28;20173;-76
2021/11/25 06:42:39;;;;;;;11.05;7.55;;;7.20;99.90;;;;;;4935624;28;20279;-75
2021/11/25 06:45:06;;;;;;;9.10;8.20;;;7.20;99.90;;;;;;4952908;28;20199;-75
2021/11/25 06:47:31;;;;;;;8.60;7.70;;;7.20;99.90;;;;;;4935239;28;20628;-75
2021/11/25 06:49:57;;;;;;;8.33;7.30;;;7.20;99.90;;;;;;4936257;28;20207;-76
2021/11/25 06:52:50;;;;;;;8.93;7.00;;;7.20;99.90;;;;;;4954751;28;20184;-75
2021/11/25 06:55:17;;;;;;;10.85;7.47;;;7.20;99.90;;;;;;4953706;28;20233;-75
2021/11/25 06:57:48;;;;;;;8.98;7.85;;;7.20;99.90;;;;;;4964916;28;20176;-75
2021/11/25 07:00:15;;;;;;;9.32;7.68;;;7.20;99.90;;;;;;4958184;28;20188;-74
2021/11/25 07:02:42;;;;;;;10.48;9.10;;;7.20;99.90;;;;;;4975210;28;20658;-75
2021/11/25 07:05:09;;;;;;;11.30;9.38;;;7.20;99.90;;;;;;4942498;28;20175;-74
2021/11/25 07:07:36;;;;;;;9.05;8.18;;;7.20;99.90;;;;;;4975324;28;20199;-75
2021/11/25 07:10:04;;;;;;;11.57;7.97;;;7.10;99.90;;;;;;4958132;28;20164;-74
2021/11/25 07:12:30;;;;;;;11.55;7.82;;;7.10;99.90;;;;;;4957871;28;20693;-74
2021/11/25 07:14:56;;;;;;;10.97;7.43;;;7.10;99.90;;;;;;4957755;28;20180;-74
2021/11/25 07:17:22;;;;;;;9.47;7.60;;;7.00;99.90;;;;;;4975031;28;20221;-76
2021/11/25 07:19:48;;;;;;;8.10;7.30;;;7.00;99.90;;;;;;4975299;28;20652;-76
2021/11/25 07:22:13;;;;;;;9.70;8.80;;;6.90;99.90;;;;;;4958226;28;20290;-76
2021/11/25 07:24:40;;;;;;;9.00;8.10;;;6.80;99.90;;;;;;4975049;28;20529;-77
2021/11/25 07:27:06;;;;;;;9.40;7.45;;;6.70;99.90;;;;;;4941700;28;20640;-76
2021/11/25 07:29:35;;;;;;;8.88;8.00;;;6.60;99.90;;;;;;4975010;28;20640;-75
2021/11/25 07:32:01;;;;;;;10.90;7.88;;;6.50;99.90;;;;;;4975596;28;20184;-77
2021/11/25 07:34:26;;;;;;;10.90;8.80;;;6.50;99.90;;;;;;4974920;28;20259;-76
2021/11/25 07:36:52;;;;;;;10.40;7.43;;;6.40;99.90;;;;;;4974975;28;21127;-76
2021/11/25 07:39:18;;;;;;;10.00;8.30;;;6.40;99.90;;;;;;4975289;28;20944;-76
2021/11/25 07:41:44;;;;;;;11.77;8.83;;;6.30;99.90;;;;;;4975279;28;20858;-77
2021/11/25 07:44:14;;;;;;;13.43;9.82;;;6.30;99.90;;;;;;4961341;28;20567;-76
2021/11/25 07:46:41;;;;;;;11.30;10.20;;;6.20;99.90;;;;;;4975350;28;20231;-76
2021/11/25 07:49:07;;;;;;;12.05;10.00;;;6.20;99.90;;;;;;4974924;28;20531;-76
2021/11/25 07:51:33;;;;;;;12.83;9.90;;;6.20;99.90;;;;;;4974735;28;20183;-76
2021/11/25 07:54:00;;;;;;;10.97;9.83;;;6.20;99.90;;;;;;4974670;28;20172;-76
2021/11/25 07:56:26;;;;;;;10.85;9.80;;;6.10;99.90;;;;;;4974297;28;20658;-76
2021/11/25 07:58:52;;;;;;;9.95;8.95;;;6.20;99.90;;;;;;4957629;28;20274;-76
2021/11/25 08:01:18;;;;;;;12.40;10.30;;;6.10;99.90;;;;;;4957299;28;20614;-77
2021/11/25 08:03:45;;;;;;;14.32;11.02;;;6.10;99.90;;;;;;4974383;28;20171;-76
2021/11/25 08:06:10;;;;;;;12.68;11.38;;;6.10;99.90;;;;;;4974548;28;20208;-76
2021/11/25 08:08:36;;;;;;;12.00;10.73;;;6.10;99.90;;;;;;4957050;28;20250;-76
2021/11/25 08:11:03;;;;;;;14.63;10.50;;;6.10;99.90;;;;;;4956967;28;20603;-76
2021/11/25 08:13:32;;;;;;;11.38;10.15;;;6.10;99.90;;;;;;4956949;28;20196;-76
2021/11/25 08:15:58;;;;;;;11.02;9.82;;;6.20;99.90;;;;;;4957067;28;20183;-76
2021/11/25 08:18:24;;;;;;;13.35;10.15;;;6.20;99.90;;;;;;4973855;28;20187;-76
2021/11/25 08:20:50;;;;;;;14.27;10.93;;;6.20;99.90;;;;;;4974649;28;20159;-76
2021/11/25 08:23:16;;;;;;;12.70;11.20;;;6.30;99.90;;;;;;4979076;28;20742;-79
2021/11/25 08:25:42;;;;;;;14.40;10.30;;;6.30;99.90;;;;;;4974492;28;20567;-79
2021/11/25 08:28:08;;;;;;;12.73;11.32;;;6.30;99.90;;;;;;4974072;28;20629;-79
2021/11/25 08:30:34;;;;;;;13.07;10.43;;;6.40;99.90;;;;;;4974504;28;20266;-79
2021/11/25 08:33:00;;;;;;;12.57;10.18;;;6.40;99.90;;;;;;4957036;28;21313;-79
2021/11/25 08:35:26;;;;;;;13.80;10.67;;;6.50;99.90;;;;;;4974521;28;20263;-79
2021/11/25 08:37:54;;;;;;;14.50;12.95;;;6.50;99.90;;;;;;4956733;28;20575;-79
2021/11/25 08:40:26;;;;;;;13.55;11.75;;;6.50;99.90;;;;;;4974485;28;20194;-80
2021/11/25 08:42:57;;;;;;;15.63;11.60;;;6.60;99.90;;;;;;4926224;28;20581;-78
2021/11/25 08:45:24;;;;;;;14.00;11.87;;;6.60;99.90;;;;;;4957233;28;20176;-78
2021/11/25 08:47:50;;;;;;;15.48;11.30;;;6.70;99.90;;;;;;4956350;28;20618;-78
2021/11/25 08:50:17;;;;;;;13.95;11.57;;;6.70;99.90;;;;;;4956955;28;20160;-78
2021/11/25 08:52:43;;;;;;;14.63;13.07;;;6.70;99.90;;;;;;4974015;28;20190;-78
2021/11/25 08:55:10;;;;;;;13.70;11.77;;;6.80;99.90;;;;;;4974748;28;20179;-78
2021/11/25 08:57:38;;;;;;;15.80;12.32;;;6.80;99.90;;;;;;4974037;28;20175;-80
2021/11/25 09:00:06;;;;;;;13.32;11.93;;;6.90;99.90;;;;;;4976952;28;20168;-77
2021/11/25 09:02:32;;;;;;;14.95;13.35;;;6.90;99.90;;;;;;4973329;28;20188;-77
2021/11/25 09:04:58;;;;;;;13.53;12.13;;;7.00;99.90;;;;;;4956334;28;20179;-77
2021/11/25 09:07:23;;;;;;;16.40;13.90;;;7.00;99.90;;;;;;4955718;28;20639;-76
2021/11/25 09:09:52;;;;;;;14.45;12.23;;;7.10;99.90;;;;;;4956600;28;20171;-77
2021/11/25 09:12:18;;;;;;;16.27;13.53;;;7.10;99.90;;;;;;4973360;28;20188;-76
2021/11/25 09:14:44;;;;;;;14.97;13.40;;;7.20;99.90;;;;;;4973225;28;20589;-77
2021/11/25 09:17:10;;;;;;;19.43;15.33;;;7.20;99.90;;;;;;4972304;28;20583;-76
2021/11/25 09:19:36;;;;;;;15.63;13.73;;;7.30;99.90;;;;;;4973463;28;20575;-76
2021/11/25 09:22:02;;;;;;;15.17;13.43;;;7.30;99.90;;;;;;4973130;28;20198;-76
2021/11/25 09:24:28;;;;;;;15.83;13.10;;;7.40;99.90;;;;;;4972973;28;20586;-77
2021/11/25 09:26:54;;;;;;;14.90;12.77;;;7.40;99.90;;;;;;4971538;28;20614;-76
2021/11/25 09:29:21;;;;;;;15.17;13.50;;;7.50;99.90;;;;;;4973283;28;20574;-76
2021/11/25 09:31:47;;;;;;;17.05;12.85;;;7.50;99.90;;;;;;4939882;28;20559;-77
2021/11/25 09:34:13;;;;;;;15.50;13.30;;;7.50;99.90;;;;;;4972933;28;20179;-76
2021/11/25 09:36:40;;;;;;;15.80;13.77;;;7.50;99.90;;;;;;4960019;28;20168;-76
2021/11/25 09:39:08;;;;;;;15.95;13.50;;;7.60;99.90;;;;;;4955576;28;20583;-76
2021/11/25 09:41:34;;;;;;;15.32;13.73;;;7.60;99.90;;;;;;4955883;28;20280;-76
2021/11/25 09:44:00;;;;;;;18.42;14.00;;;7.60;99.90;;;;;;4972931;28;20608;-76
2021/11/25 09:46:27;;;;;;;19.33;14.00;;;7.60;99.90;;;;;;4972737;28;20199;-76
2021/11/25 09:48:57;;;;;;;15.88;13.75;;;7.60;99.90;;;;;;4955489;28;20530;-76
2021/11/25 09:51:24;;;;;;;20.38;15.07;;;7.70;99.90;;;;;;4973222;28;20278;-76
2021/11/25 09:53:52;;;;;;;16.33;14.25;;;7.70;99.90;;;;;;4972440;28;20160;-76
2021/11/25 09:56:18;;;;;;;16.20;14.60;;;7.70;99.90;;;;;;4973199;28;20765;-76
2021/11/25 09:58:45;;;;;;;15.85;13.43;;;7.80;99.90;;;;;;4972206;28;20163;-76
2021/11/25 10:01:17;;;;;;;20.65;15.15;;;7.90;99.90;;;;;;4972842;28;20191;-76
2021/11/25 10:03:48;;;;;;;13.77;12.38;;;7.90;99.90;;;;;;4939434;28;20175;-77
2021/11/25 10:06:20;;;;;;;17.95;14.23;;;8.10;99.90;;;;;;4939567;28;20200;-76
2021/11/25 10:08:52;;;;;;;12.35;11.05;;;8.20;99.90;;;;;;4955290;28;20656;-76
2021/11/25 10:11:23;;;;;;;15.88;13.85;;;8.40;99.90;;;;;;4972741;28;20199;-76
2021/11/25 10:14:02;;;;;;;16.15;14.52;;;8.60;99.90;;;;;;4977929;28;20271;-76
2021/11/25 10:16:35;;;;;;;17.30;14.80;;;8.80;99.90;;;;;;4972166;28;20286;-76
2021/11/25 10:19:14;;;;;;;19.35;14.32;;;9.00;99.90;;;;;;4972787;28;20286;-76
2021/11/25 10:21:42;;;;;;;16.23;13.70;;;9.10;99.90;;;;;;4972966;28;20621;-76
2021/11/25 10:24:08;;;;;;;15.52;13.93;;;9.20;99.90;;;;;;4972135;28;20179;-76
2021/11/25 10:26:35;;;;;;;16.23;14.63;;;9.30;99.90;;;;;;4972024;28;20195;-76
2021/11/25 10:29:07;;;;;;;16.60;14.32;;;9.30;99.90;;;;;;4975187;28;20615;-76
2021/11/25 10:31:36;;;;;;;14.18;12.68;;;9.40;99.90;;;;;;4976350;28;20187;-76
2021/11/25 10:34:13;;;;;;;17.42;15.63;;;9.40;99.90;;;;;;4976158;28;20172;-76
2021/11/25 10:42:32;;;;;;;21.60;18.70;;;9.60;99.90;;;;;;4976138;28;20194;-76
2021/11/25 10:44:58;;;;;;;24.50;19.75;;;9.70;99.90;;;;;;4943035;28;20271;-76
2021/11/25 10:47:25;;;;;;;17.63;15.77;;;9.60;99.90;;;;;;4942280;28;20286;-76
2021/11/25 10:49:52;;;;;;;20.95;18.00;;;9.70;99.90;;;;;;4945160;28;20589;-77
2021/11/25 10:52:35;;;;;;;18.02;16.00;;;9.70;99.90;;;;;;4961206;28;20195;-76
2021/11/25 10:55:14;;;;;;;24.42;18.15;;;9.60;99.90;;;;;;4976312;28;20178;-76
2021/11/25 10:57:47;;;;;;;20.08;17.60;;;9.70;99.90;;;;;;4926250;28;20190;-76
2021/11/25 11:00:19;;;;;;;22.85;17.58;;;9.80;99.90;;;;;;4942556;28;20172;-76
2021/11/25 11:02:46;;;;;;;19.55;17.50;;;9.80;99.90;;;;;;4958239;28;20195;-76
2021/11/25 11:05:17;;;;;;;18.00;16.27;;;9.90;99.90;;;;;;4975988;28;20175;-76
2021/11/25 11:07:45;;;;;;;19.00;16.30;;;9.90;99.90;;;;;;4957605;28;20286;-76
2021/11/25 11:10:27;;;;;;;20.50;17.83;;;10.00;99.90;;;;;;4975927;28;20595;-76
2021/11/25 11:15:49;;;;;;;18.60;15.57;;;10.10;99.90;;;;;;4958124;28;20602;-76
2021/11/25 11:20:49;;;;;;;16.87;15.00;;;10.20;99.90;;;;;;4975683;28;20183;-76
2021/11/25 11:23:17;;;;;;;15.88;13.88;;;10.20;99.90;;;;;;4975292;28;20181;-76
2021/11/25 11:25:44;;;;;;;17.90;16.10;;;10.20;99.90;;;;;;4975878;28;20175;-77
2021/11/25 11:28:11;;;;;;;16.27;14.65;;;10.20;99.90;;;;;;4965132;28;20211;-77
2021/11/25 11:30:38;;;;;;;16.40;14.50;;;10.30;99.90;;;;;;4958607;28;20556;-77
2021/11/25 11:33:07;;;;;;;17.48;15.68;;;10.30;99.90;;;;;;4958032;28;20664;-77
2021/11/25 11:35:33;;;;;;;16.48;14.70;;;10.30;99.90;;;;;;4975350;28;20179;-77
2021/11/25 11:38:02;;;;;;;15.80;14.20;;;10.30;99.90;;;;;;4974825;28;20180;-77
2021/11/25 11:40:29;;;;;;;15.35;13.85;;;10.20;99.90;;;;;;4957779;28;20595;-77
2021/11/25 11:42:59;;;;;;;15.90;14.02;;;10.20;99.90;;;;;;4975195;28;20771;-77
2021/11/25 11:45:26;;;;;;;15.65;13.90;;;10.20;99.90;;;;;;4958076;28;20176;-77
2021/11/25 11:47:55;;;;;;;15.20;13.60;;;10.20;99.90;;;;;;4957437;28;20535;-77
2021/11/25 11:50:30;;;;;;;15.68;12.43;;;10.20;99.90;;;;;;4975514;28;20168;-77
2021/11/25 11:52:59;;;;;;;14.13;12.60;;;10.10;99.90;;;;;;4974717;28;20665;-77
2021/11/25 11:55:28;;;;;;;17.95;13.57;;;10.10;99.90;;;;;;4975405;28;20230;-77
2021/11/25 11:57:54;;;;;;;15.57;14.05;;;10.10;99.90;;;;;;4958736;28;20183;-77
2021/11/25 12:00:20;;;;;;;21.13;15.90;;;10.10;99.90;;;;;;4978449;28;20813;-77
2021/11/25 12:02:51;;;;;;;22.13;17.83;;;10.00;99.90;;;;;;4978054;28;20595;-77
2021/11/25 12:05:46;;;;;;;16.80;14.30;;;10.00;99.90;;;;;;4969533;28;20234;-76
2021/11/25 12:08:21;;;;;;;18.58;14.82;;;10.00;99.90;;;;;;4978991;28;20202;-76
2021/11/25 12:10:56;;;;;;;16.25;13.18;;;10.00;99.90;;;;;;4964335;28;20175;-77
2021/11/25 12:13:27;;;;;;;17.88;13.50;;;10.00;99.90;;;;;;4956792;28;20190;-76
2021/11/25 12:16:19;;;;;;;13.85;12.45;;;10.00;99.90;;;;;;4993184;28;20184;-77
2021/11/25 12:18:54;;;;;;;15.10;13.40;;;10.00;99.90;;;;;;4976376;28;20186;-75
2021/11/25 12:21:37;;;;;;;14.95;12.75;;;10.10;99.90;;;;;;4971111;28;20195;-75
2021/11/25 12:24:51;;;;;;;14.48;11.88;;;10.10;99.90;;;;;;4956745;28;20200;-76
2021/11/25 12:30:01;;;;;;;17.27;12.40;;;10.10;99.90;;;;;;4915806;29;20354;-76
2021/11/25 12:32:44;;;;;;;14.43;12.88;;;10.10;99.90;;;;;;4941801;28;20290;-77
2021/11/25 12:35:18;;;;;;;14.55;13.05;;;10.10;99.90;;;;;;4959444;28;20164;-76
2021/11/25 12:37:45;;;;;;;15.55;12.95;;;10.10;99.90;;;;;;4956180;28;20199;-76
2021/11/25 12:40:17;;;;;;;15.63;11.93;;;10.10;99.90;;;;;;4938507;29;20172;-76
2021/11/25 12:42:52;;;;;;;13.38;11.52;;;10.10;99.90;;;;;;4942060;29;20196;-76
2021/11/25 12:45:19;;;;;;;15.25;11.98;;;10.10;99.90;;;;;;4938075;29;20176;-76
2021/11/25 12:47:46;;;;;;;16.23;13.70;;;10.20;99.90;;;;;;4921014;29;20576;-76
2021/11/25 12:50:20;;;;;;;13.38;11.70;;;10.20;99.90;;;;;;4937376;29;20537;-76
2021/11/25 12:52:47;;;;;;;14.60;12.27;;;10.30;99.90;;;;;;4954958;29;20262;-76
2021/11/25 12:55:15;;;;;;;14.25;12.85;;;10.40;99.90;;;;;;4937292;29;20711;-76
2021/11/25 12:57:53;;;;;;;16.98;13.80;;;10.40;99.90;;;;;;4937199;29;20538;-76
2021/11/25 13:00:24;;;;;;;15.02;12.88;;;10.50;99.90;;;;;;4920605;29;20582;-76
2021/11/25 13:03:05;;;;;;;13.48;12.07;;;10.60;99.90;;;;;;4936329;29;20192;-76
2021/11/25 13:05:32;;;;;;;13.35;11.95;;;10.60;99.90;;;;;;4953780;29;20180;-76
2021/11/25 13:08:01;;;;;;;13.45;11.75;;;10.70;99.90;;;;;;4952928;29;20564;-76
2021/11/25 13:10:31;;;;;;;12.73;11.25;;;10.70;99.90;;;;;;4954656;29;20183;-77
2021/11/25 13:13:15;;;;;;;14.00;11.85;;;10.70;99.90;;;;;;4936974;29;20275;-77